»·PEaware :: N95465 0O2-1L1

N95465 :: 0O2-1L1

FLIGHT INFORMATION

Flight Status: Arrived
Operator: Privately registered:
United States
More flights under this callsign
Pilot: Martin A. (6413)
Aircraft: PIPER PA-34 SENECA
(PA34)
More flights by this aircraft type
Origin: 0O2 Baker
United States
Destination: 1L1 Lincoln Co
United States
More flights between these airports :: More routes between these airports
Route: CLARR V394 MMM
File this flight plan on PilotEdge
Remarks:
Altitude:
(Current/Filed)
11,000ft
Speed:
(Current/Filed)
160kts
Departed: 21-Jan-18 05:46 PM
Arrived: 21-Jan-18 07:04 PM
Distance/Time
Traveled:
170nm/1:18
Distance/Time
To Go:
Arrived

Flight Plot

Page will automatically refresh every two minutes.


Map Options




Map Legend


Flown Route
Filed Route
Departure Airport
Arrival Airport
Navaid (VOR, NDB)
Fix

Horizontal Profiles

Position Reports

Time Latitude Longitude Heading Altitude Ground
Speed
21-Jan-18 17:36 35.287784 -116.081152 256 921ft 0kts
21-Jan-18 17:37 35.287784 -116.081152 256 921ft 0kts
21-Jan-18 17:38 35.287784 -116.081152 256 921ft 0kts
21-Jan-18 17:39 35.287784 -116.081152 256 921ft 0kts
21-Jan-18 17:40 35.287784 -116.081152 256 921ft 0kts
21-Jan-18 17:41 35.287784 -116.081152 256 921ft 0kts
21-Jan-18 17:42 35.287784 -116.081152 256 921ft 0kts
21-Jan-18 17:43 35.287784 -116.081152 256 921ft 0kts
21-Jan-18 17:44 35.287784 -116.081152 256 921ft 0kts
21-Jan-18 17:45 35.287739 -116.081399 256 921ft 0kts
21-Jan-18 17:46 35.287737 -116.081406 255 921ft 0kts
21-Jan-18 17:47 35.287737 -116.081406 255 921ft 0kts
21-Jan-18 17:48 35.287737 -116.081406 255 921ft 0kts
21-Jan-18 17:49 35.288388 -116.082024 346 921ft 8kts
21-Jan-18 17:50 35.290357 -116.082594 341 921ft 4kts
21-Jan-18 17:51 35.290265 -116.082630 161 921ft 2kts
21-Jan-18 17:52 35.269767 -116.076371 166 1966ft 123kts
21-Jan-18 17:53 35.236709 -116.067192 167 3104ft 136kts
21-Jan-18 17:54 35.199155 -116.056976 167 3626ft 145kts
21-Jan-18 17:55 35.160236 -116.046426 167 4142ft 146kts
21-Jan-18 17:56 35.132222 -116.069486 254 4680ft 148kts
21-Jan-18 17:57 35.121718 -116.118338 295 5199ft 146kts
21-Jan-18 17:58 35.156969 -116.116544 19 5732ft 143kts
21-Jan-18 17:59 35.193713 -116.097994 19 6258ft 142kts
21-Jan-18 18:00 35.230152 -116.079318 19 6783ft 142kts
21-Jan-18 18:01 35.265927 -116.060751 19 7303ft 143kts
21-Jan-18 18:02 35.300749 -116.040606 34 8240ft 138kts
21-Jan-18 18:03 35.330160 -116.012262 32 9237ft 133kts
21-Jan-18 18:04 35.358858 -115.984748 31 10239ft 129kts
21-Jan-18 18:05 35.387361 -115.957513 31 11039ft 141kts
21-Jan-18 18:06 35.422286 -115.924148 32 10992ft 168kts
21-Jan-18 18:07 35.459113 -115.888662 32 10989ft 167kts
21-Jan-18 18:08 35.495564 -115.853588 32 10988ft 166kts
21-Jan-18 18:09 35.531872 -115.818630 32 10987ft 166kts
21-Jan-18 18:10 35.568062 -115.783745 32 10985ft 166kts
21-Jan-18 18:11 35.598368 -115.754500 32 10984ft 166kts
21-Jan-18 18:12 35.634533 -115.719562 32 10983ft 165kts
21-Jan-18 18:13 35.676386 -115.678677 38 10980ft 167kts
21-Jan-18 18:14 35.703303 -115.644423 40 10981ft 167kts
21-Jan-18 18:15 35.741276 -115.595897 40 10981ft 170kts
21-Jan-18 18:16 35.774203 -115.553714 40 10980ft 170kts
21-Jan-18 18:17 35.801576 -115.518607 40 10980ft 170kts
21-Jan-18 18:18 35.834387 -115.476479 40 10980ft 170kts
21-Jan-18 18:19 35.867313 -115.434155 40 10977ft 170kts
21-Jan-18 18:20 35.900114 -115.391931 40 10975ft 170kts
21-Jan-18 18:21 35.932597 -115.350062 40 10973ft 170kts
21-Jan-18 18:22 35.964039 -115.309486 40 10972ft 170kts
21-Jan-18 18:23 35.996517 -115.267522 40 10973ft 170kts
21-Jan-18 18:24 36.028077 -115.226684 40 10973ft 170kts
21-Jan-18 18:25 36.060122 -115.185167 40 10972ft 171kts
21-Jan-18 18:26 36.092686 -115.143373 39 10969ft 170kts
21-Jan-18 18:27 36.127727 -115.112401 15 10973ft 163kts
21-Jan-18 18:28 36.170359 -115.094812 14 10969ft 162kts
21-Jan-18 18:29 36.212515 -115.077630 15 10974ft 161kts
21-Jan-18 18:30 36.253786 -115.059986 13 10974ft 160kts
21-Jan-18 18:31 36.295986 -115.043291 14 10973ft 159kts
21-Jan-18 18:32 36.337868 -115.026236 14 10973ft 159kts
21-Jan-18 18:33 36.379637 -115.009120 14 10973ft 158kts
21-Jan-18 18:34 36.421253 -114.992031 14 10973ft 158kts
21-Jan-18 18:35 36.462555 -114.975050 14 10972ft 157kts
21-Jan-18 18:36 36.503871 -114.958043 14 10972ft 157kts
21-Jan-18 18:37 36.545001 -114.941096 14 10972ft 156kts
21-Jan-18 18:38 36.586250 -114.924079 14 10972ft 156kts
21-Jan-18 18:39 36.627283 -114.907132 14 10971ft 156kts
21-Jan-18 18:40 36.668319 -114.890164 14 10971ft 156kts
21-Jan-18 18:41 36.709375 -114.873169 14 10971ft 156kts
21-Jan-18 18:42 36.750387 -114.856172 14 10970ft 156kts
21-Jan-18 18:43 36.791421 -114.839148 14 10970ft 156kts
21-Jan-18 18:44 36.832167 -114.822223 14 10970ft 156kts
21-Jan-18 18:45 36.873143 -114.805184 14 10970ft 156kts
21-Jan-18 18:46 36.914140 -114.788117 14 10969ft 156kts
21-Jan-18 18:47 36.954988 -114.771093 14 10969ft 156kts
21-Jan-18 18:48 36.996142 -114.753966 15 10969ft 157kts
21-Jan-18 18:49 37.035765 -114.737402 15 10968ft 145kts
21-Jan-18 18:50 37.073683 -114.721561 16 10969ft 144kts
21-Jan-18 18:51 37.110458 -114.706170 16 10974ft 146kts
21-Jan-18 18:52 37.149039 -114.689981 16 10975ft 148kts
21-Jan-18 18:53 37.187798 -114.673700 16 10975ft 148kts
21-Jan-18 18:54 37.226620 -114.657393 16 10975ft 149kts
21-Jan-18 18:55 37.265459 -114.641064 16 10976ft 148kts
21-Jan-18 18:56 37.304337 -114.624701 16 10976ft 148kts
21-Jan-18 18:57 37.343080 -114.608380 16 10977ft 148kts
21-Jan-18 18:58 37.381254 -114.592278 16 10977ft 148kts
21-Jan-18 18:59 37.420283 -114.575812 16 10689ft 149kts
21-Jan-18 19:00 37.459104 -114.559419 17 9949ft 154kts
21-Jan-18 19:01 37.498772 -114.542613 17 9479ft 150kts
21-Jan-18 19:02 37.537657 -114.526126 17 9480ft 147kts
21-Jan-18 19:03 37.575996 -114.509876 17 9350ft 151kts
21-Jan-18 19:04 37.616292 -114.492774 17 8893ft 155kts
21-Jan-18 19:05 37.655330 -114.476179 17 8422ft 144kts
21-Jan-18 19:06 37.691858 -114.460636 18 7960ft 139kts
21-Jan-18 19:07 37.726815 -114.445758 18 7136ft 126kts
21-Jan-18 19:08 37.751005 -114.435131 21 5843ft 80kts
21-Jan-18 19:09 37.770277 -114.421694 5 4931ft 79kts
21-Jan-18 19:10 37.787001 -114.420883 355 4814ft 14kts
21-Jan-18 19:11 37.787582 -114.421429 5 4815ft 0kts

Navigation Log

Ident Type
Flight plan parsing failed, navigation log unavailable